METAR Data
IDs: Format: Raw Decoded Include TAF

Data at: 2019 UTC 17 Jul 2019

Region: TOP
KATL 172010Z 33003KT 10SM -TSRA FEW025CB SCT085 BKN110 OVC150 25/22 A3013 RMK AO2 LTG DSNT NE AND E OCNL LTGICCG NE-SE TS NE-SE MOV NE P0000 T02500217

KBOS 172014Z 19013G22KT 10SM -TSRA FEW014 SCT027CB BKN120 OVC200 31/22 A2984 RMK AO2 RAB11 TSB08 PRESRR OCNL LTGICCC SW TS SW MOV E P0000 T03060217 $

KBWI 171954Z 18009G17KT 10SM SCT060 SCT160 BKN250 36/22 A2986 RMK AO2 SLP111 TCU DSNT N-NE T03560222

KCLE 171951Z 34007KT 10SM SCT018 28/22 A2990 RMK AO2 LTG DSNT SE SLP119 T02780217 $

KCLT 171952Z 26010G19KT 10SM FEW060 SCT200 SCT250 36/20 A3002 RMK AO2 SLP155 T03560200

KCVG 171952Z 27012KT 10SM FEW036 FEW140 SCT250 29/23 A2994 RMK AO2 SLP126 CB DSNT SE S TCU DSNT N SW T02940228 $

KDCA 171952Z 18012KT 10SM SCT055 SCT250 34/24 A2988 RMK AO2 SLP117 T03390239

KDEN 171953Z VRB04KT 10SM FEW110 SCT140 BKN220 35/05 A2999 RMK AO2 SLP051 T03500050

KDFW 171953Z 19014G20KT 10SM FEW049 34/21 A2998 RMK AO2 SLP140 T03440211

KDTW 171953Z 03008KT 10SM BKN040 BKN065 32/22 A2988 RMK AO2 SLP114 T03170217

KEWR 171951Z 23012KT 10SM FEW050 SCT140 BKN200 BKN250 34/21 A2985 RMK AO2 SLP109 T03440206

KFLL 171953Z 12012G17KT 10SM SCT027 BKN250 32/24 A3009 RMK AO2 SLP188 T03170244

KIAD 171952Z 20011G16KT 10SM SCT055 BKN080 BKN200 34/21 A2987 RMK AO2 SLP111 T03440211

KIAH 171953Z 01007KT 10SM -TSRA BKN040CB BKN100 OVC250 31/23 A3005 RMK AO2 RAE1854B11 SLP173 OCNL LTGCCCG NE-E AND W-NW TS NE-E AND W-NW MOV N P0018 T03060233

KJFK 171951Z 19015KT 10SM FEW045 FEW100 BKN250 29/26 A2988 RMK AO2 LTG DSNT N AND NE SLP118 TCU DSNT W-NW T02940256

KLAS 171956Z 22010G21KT 10SM FEW250 39/M02 A2988 RMK AO2 SLP083 T03891022

KLAX 171953Z 25011KT 8SM FEW020 22/16 A2996 RMK AO2 SLP143 T02220161

KLGA 171951Z 15011G16KT 10SM CLR 33/23 A2985 RMK AO2 LTG DSNT NE SLP107 T03330228

KMCO 171953Z 17009KT 10SM FEW040 BKN250 34/22 A3008 RMK AO2 LTG DSNT N SLP185 CB DSNT S T03440217

KMDW 171953Z 13006KT 10SM FEW030 SCT065 BKN110 BKN150 BKN250 31/22 A2990 RMK AO2 LTG DSNT NW SLP115 CB DSNT NW TCU DSNT S-SW T03110217

KMEM 171954Z 24009KT 10SM BKN030 BKN048 33/27 A3003 RMK AO2 SLP165 T03280267

KMIA 171953Z 12008G16KT 10SM SCT038 BKN250 32/22 A3009 RMK AO2 SLP188 T03220222

KMSP 171953Z 15013G23KT 10SM FEW020 SCT025 BKN037 BKN250 29/22 A2978 RMK AO2 SLP078 T02890222

KORD 171958Z 08009KT 6SM -TSRA BKN034CB BKN070 OVC090 27/23 A2992 RMK AO2 TSE55B56 OCNL LTGICCG OHD TS OHD MOV E P0006 T02670228

KPDX 171953Z 20009KT 10SM SCT041 OVC050 22/13 A2997 RMK AO2 SLP146 T02220128

KPHL 171954Z 20012KT 10SM SCT050 SCT250 35/21 A2988 RMK AO2 SLP117 T03500206

KPHX 171951Z 36006G18KT 10SM FEW220 BKN250 39/14 A2989 RMK AO2 SLP097 T03890139

KPIT 171951Z 24004KT 8SM -RA BKN007 OVC016 24/23 A2991 RMK AO2 SLP126 P0037 T02390228 $

KSAN 171951Z 20010KT 10SM BKN012 21/16 A2999 RMK AO2 SLP157 T02110161

KSEA 171953Z 20008KT 10SM BKN020 OVC027 19/15 A2990 RMK AO2 RAE16 SLP130 P0000 T01890150

KSFO 171956Z 02005KT 10SM FEW010 SCT200 22/13 A2991 RMK AO2 SLP128 T02220133

KSLC 171954Z VRB04KT 10SM FEW100 FEW160 BKN230 32/10 A2998 RMK AO2 SLP087 T03220100 PNO $

KSTL 171951Z 18005KT 10SM FEW045 FEW250 34/22 A2994 RMK AO2 SLP125 TCU DSNT SW T03440217

KTPA 171953Z 25006KT 10SM FEW018 SCT036CB BKN130 BKN250 29/25 A3010 RMK AO2 LTG DSNT N AND NE RAE34 TSE44 SLP193 CB N-NE MOV W CB DSNT SE AND SW TCU E P0001 T02940250 $